createdAt,value
2023-05-21T00:00:34.094Z,98.21
2023-05-21T00:02:35.743Z,98.20
2023-05-21T00:04:37.604Z,98.30
2023-05-21T00:06:39.164Z,98.05
2023-05-21T00:08:40.920Z,98.65
2023-05-21T00:10:43.885Z,99.42
2023-05-21T00:12:45.424Z,98.75
2023-05-21T00:14:46.968Z,99.33
2023-05-21T00:16:48.566Z,99.13
2023-05-21T00:18:50.436Z,99.19
2023-05-21T00:20:52.076Z,99.28
2023-05-21T00:22:53.605Z,99.79
2023-05-21T00:24:55.132Z,99.88
2023-05-21T00:26:58.040Z,100.00
2023-05-21T00:28:59.927Z,100.00
2023-05-21T00:31:01.562Z,100.00
2023-05-21T00:33:03.255Z,100.00
2023-05-21T00:35:05.938Z,100.00
2023-05-21T00:37:07.516Z,100.00
2023-05-21T00:39:09.048Z,100.00
2023-05-21T00:41:10.968Z,100.00
2023-05-21T00:43:13.978Z,100.00
2023-05-21T00:45:15.710Z,100.00
2023-05-21T00:47:17.298Z,100.00
2023-05-21T00:49:19.155Z,100.00
2023-05-21T00:51:20.903Z,100.00
2023-05-21T00:53:22.521Z,100.00
2023-05-21T00:55:24.404Z,100.00
2023-05-21T00:57:26.716Z,100.00
2023-05-21T00:59:29.682Z,100.00
2023-05-21T01:01:32.004Z,100.00
2023-05-21T01:03:35.223Z,100.00
2023-05-21T01:05:37.016Z,100.00
2023-05-21T01:07:40.610Z,100.00
2023-05-21T01:09:43.373Z,100.00
2023-05-21T01:11:47.482Z,100.00
2023-05-21T01:13:50.029Z,100.00
2023-05-21T01:15:54.291Z,100.00
2023-05-21T01:17:56.147Z,100.00
2023-05-21T01:19:58.484Z,100.00
2023-05-21T01:22:03.551Z,100.00
2023-05-21T01:24:06.660Z,100.00
2023-05-21T01:26:08.310Z,100.00
2023-05-21T01:28:09.928Z,100.00
2023-05-21T01:30:13.190Z,100.00
2023-05-21T01:32:22.190Z,100.00
2023-05-21T01:34:29.990Z,100.00
2023-05-21T01:36:38.423Z,100.00
2023-05-21T01:38:43.544Z,100.00
2023-05-21T01:40:52.959Z,100.00
2023-05-21T01:42:54.686Z,100.00
2023-05-21T01:44:59.223Z,100.00
2023-05-21T01:47:02.085Z,100.00
2023-05-21T01:49:05.113Z,100.00
2023-05-21T01:51:06.770Z,100.00
2023-05-21T01:53:08.310Z,100.00
2023-05-21T01:55:10.184Z,100.00
2023-05-21T01:57:13.219Z,100.00
2023-05-21T01:59:15.073Z,100.00
2023-05-21T02:01:16.608Z,100.00
2023-05-21T02:03:19.061Z,100.00
2023-05-21T02:05:20.892Z,100.00
2023-05-21T02:07:22.413Z,100.00
2023-05-21T02:09:23.922Z,100.00
2023-05-21T02:11:25.439Z,100.00
2023-05-21T02:13:28.309Z,100.00
2023-05-21T02:15:29.884Z,100.00
2023-05-21T02:17:31.561Z,100.00
2023-05-21T02:19:33.141Z,100.00
2023-05-21T02:21:34.715Z,100.00
2023-05-21T02:23:36.230Z,100.00
2023-05-21T02:25:38.077Z,100.00
2023-05-21T02:27:41.346Z,100.00
2023-05-21T02:29:44.238Z,100.00
2023-05-21T02:31:45.747Z,100.00
2023-05-21T02:33:47.283Z,100.00
2023-05-21T02:35:48.966Z,100.00
2023-05-21T02:37:50.495Z,100.00
2023-05-21T02:39:52.015Z,100.00
2023-05-21T02:41:53.536Z,100.00
2023-05-21T02:43:55.045Z,100.00
2023-05-21T02:45:57.979Z,100.00
2023-05-21T02:47:59.563Z,100.00
2023-05-21T02:50:01.383Z,100.00
2023-05-21T02:52:02.978Z,100.00
2023-05-21T02:54:04.480Z,100.00
2023-05-21T02:56:06.210Z,100.00
2023-05-21T02:58:07.758Z,100.00
2023-05-21T03:00:10.618Z,100.00
2023-05-21T03:02:13.692Z,100.00
2023-05-21T03:04:15.284Z,100.00
2023-05-21T03:06:16.833Z,100.00
2023-05-21T03:08:18.340Z,100.00
2023-05-21T03:10:19.892Z,100.00
2023-05-21T03:12:21.438Z,100.00
2023-05-21T03:14:22.970Z,100.00
2023-05-21T03:16:24.586Z,100.00
2023-05-21T03:18:27.509Z,100.00
2023-05-21T03:20:29.235Z,100.00
2023-05-21T03:22:30.830Z,100.00
2023-05-21T03:24:32.408Z,100.00
2023-05-21T03:26:33.940Z,100.00
2023-05-21T03:28:35.642Z,100.00
2023-05-21T03:30:37.165Z,100.00
2023-05-21T03:32:38.824Z,100.00
2023-05-21T03:34:41.726Z,100.00
2023-05-21T03:36:43.357Z,100.00
2023-05-21T03:38:44.953Z,100.00
2023-05-21T03:40:46.584Z,100.00
2023-05-21T03:42:48.268Z,100.00
2023-05-21T03:44:49.808Z,100.00
2023-05-21T03:46:51.317Z,100.00
2023-05-21T03:48:52.812Z,100.00
2023-05-21T03:50:55.920Z,100.00
2023-05-21T03:52:57.620Z,100.00
2023-05-21T03:54:59.139Z,100.00
2023-05-21T03:57:00.675Z,100.00
2023-05-21T03:59:02.309Z,100.00
2023-05-21T04:01:04.135Z,100.00
2023-05-21T04:03:05.856Z,100.00
2023-05-21T04:05:08.260Z,100.00
2023-05-21T04:07:11.133Z,100.00
2023-05-21T04:09:12.650Z,100.00
2023-05-21T04:11:14.224Z,100.00
2023-05-21T04:13:15.735Z,100.00
2023-05-21T04:15:17.247Z,100.00
2023-05-21T04:17:18.794Z,100.00
2023-05-21T04:19:20.386Z,100.00
2023-05-21T04:21:22.008Z,100.00
2023-05-21T04:23:24.906Z,100.00
2023-05-21T04:25:26.474Z,100.00
2023-05-21T04:27:28.014Z,100.00
2023-05-21T04:29:29.687Z,100.00
2023-05-21T04:31:31.416Z,100.00
2023-05-21T04:33:32.981Z,100.00
2023-05-21T04:35:34.750Z,100.00
2023-05-21T04:37:36.400Z,100.00
2023-05-21T04:39:39.306Z,100.00
2023-05-21T04:41:40.853Z,100.00
2023-05-21T04:43:42.366Z,100.00
2023-05-21T04:45:43.877Z,100.00
2023-05-21T04:47:45.424Z,100.00
2023-05-21T04:49:47.131Z,100.00
2023-05-21T04:51:48.675Z,100.00
2023-05-21T04:53:51.415Z,100.00
2023-05-21T04:55:54.295Z,100.00
2023-05-21T04:57:55.814Z,100.00
2023-05-21T04:59:57.328Z,100.00
2023-05-21T05:01:58.907Z,100.00
2023-05-21T05:04:00.575Z,100.00
2023-05-21T05:06:02.164Z,100.00
2023-05-21T05:08:03.908Z,100.00
2023-05-21T05:10:06.310Z,100.00
2023-05-21T05:12:09.349Z,100.00
2023-05-21T05:14:10.844Z,100.00
2023-05-21T05:16:12.416Z,100.00
2023-05-21T05:18:14.868Z,100.00
2023-05-21T05:20:16.521Z,100.00
2023-05-21T05:22:18.033Z,100.00
2023-05-21T05:24:19.605Z,100.00
2023-05-21T05:26:21.171Z,100.00
2023-05-21T05:28:24.077Z,100.00
2023-05-21T05:30:25.642Z,100.00
2023-05-21T05:32:27.214Z,100.00
2023-05-21T05:34:28.817Z,100.00
2023-05-21T05:36:30.411Z,100.00
2023-05-21T05:38:31.923Z,100.00
2023-05-21T05:40:33.437Z,100.00
2023-05-21T05:42:35.027Z,100.00
2023-05-21T05:44:37.945Z,100.00
2023-05-21T05:46:39.590Z,100.00
2023-05-21T05:48:41.215Z,100.00
2023-05-21T05:50:42.846Z,100.00
2023-05-21T05:52:44.376Z,100.00
2023-05-21T05:54:45.954Z,100.00
2023-05-21T05:56:47.507Z,100.00
2023-05-21T05:58:49.008Z,100.00
2023-05-21T06:00:52.078Z,100.00
2023-05-21T06:02:53.709Z,100.00
2023-05-21T06:04:55.330Z,100.00
2023-05-21T06:06:57.156Z,100.00
2023-05-21T06:08:58.662Z,100.00
2023-05-21T06:11:00.198Z,100.00
2023-05-21T06:13:01.877Z,100.00
2023-05-21T06:15:04.041Z,100.00
2023-05-21T06:17:06.906Z,100.00
2023-05-21T06:19:08.506Z,100.00
2023-05-21T06:21:10.069Z,100.00
2023-05-21T06:23:11.700Z,100.00
2023-05-21T06:25:13.244Z,100.00
2023-05-21T06:27:14.948Z,100.00
2023-05-21T06:29:16.473Z,100.00
2023-05-21T06:31:18.084Z,100.00
2023-05-21T06:33:21.015Z,100.00
2023-05-21T06:35:22.740Z,100.00
2023-05-21T06:37:26.432Z,100.00
2023-05-21T06:39:28.225Z,100.00
2023-05-21T06:41:29.781Z,100.00
2023-05-21T06:43:31.290Z,100.00
2023-05-21T06:45:32.808Z,100.00
2023-05-21T06:47:34.417Z,100.00
2023-05-21T06:49:37.335Z,100.00
2023-05-21T06:51:38.874Z,100.00
2023-05-21T06:53:40.576Z,100.00
2023-05-21T06:55:42.185Z,100.00
2023-05-21T06:57:43.705Z,100.00
2023-05-21T06:59:45.238Z,100.00
2023-05-21T07:01:46.832Z,100.00
2023-05-21T07:03:48.534Z,100.00
2023-05-21T07:05:51.467Z,99.73
2023-05-21T07:07:52.992Z,98.28
2023-05-21T07:09:54.496Z,97.03
2023-05-21T07:11:56.069Z,96.11
2023-05-21T07:13:58.863Z,93.88
2023-05-21T07:16:00.382Z,95.30
2023-05-21T07:18:01.992Z,93.84
2023-05-21T07:20:03.774Z,93.48
2023-05-21T07:22:06.717Z,93.61
2023-05-21T07:24:08.246Z,92.45
2023-05-21T07:26:10.265Z,90.67
2023-05-21T07:28:11.812Z,89.14
2023-05-21T07:30:14.214Z,88.72
2023-05-21T07:32:15.903Z,87.40
2023-05-21T07:34:17.529Z,86.13
2023-05-21T07:36:19.115Z,85.31
2023-05-21T07:38:22.019Z,84.76
2023-05-21T07:40:23.562Z,84.89
2023-05-21T07:42:25.727Z,83.01
2023-05-21T07:44:27.268Z,82.89
2023-05-21T07:46:28.814Z,82.66
2023-05-21T07:48:30.367Z,82.24
2023-05-21T07:50:31.935Z,82.43
2023-05-21T07:52:33.572Z,81.33
2023-05-21T07:54:36.525Z,80.77
2023-05-21T07:56:38.062Z,80.66
2023-05-21T07:58:39.629Z,80.74
2023-05-21T08:00:42.983Z,81.04
2023-05-21T08:02:45.041Z,80.60
2023-05-21T08:04:46.787Z,81.40
2023-05-21T08:06:48.466Z,79.46
2023-05-21T08:08:50.096Z,78.93
2023-05-21T08:10:53.004Z,77.87
2023-05-21T08:12:54.616Z,77.42
2023-05-21T08:14:57.332Z,77.45
2023-05-21T08:16:58.862Z,76.64
2023-05-21T08:19:00.551Z,75.70
2023-05-21T08:21:02.149Z,74.18
2023-05-21T08:23:03.681Z,73.34
2023-05-21T08:25:05.964Z,72.63
2023-05-21T08:27:08.848Z,72.41
2023-05-21T08:29:10.470Z,72.38
2023-05-21T08:31:12.108Z,72.05
2023-05-21T08:33:13.645Z,71.68
2023-05-21T08:35:15.325Z,70.40
2023-05-21T08:37:16.927Z,69.72
2023-05-21T08:39:18.477Z,68.26
2023-05-21T08:41:21.288Z,68.96
2023-05-21T08:43:27.059Z,68.73
2023-05-21T08:45:34.502Z,68.09
2023-05-21T08:47:36.468Z,67.48
2023-05-21T08:49:38.168Z,66.44
2023-05-21T08:51:39.796Z,66.47
2023-05-21T08:53:41.540Z,66.23
2023-05-21T08:55:43.492Z,65.14
2023-05-21T08:57:45.014Z,64.46
2023-05-21T08:59:47.873Z,63.35
2023-05-21T09:01:49.600Z,63.42
2023-05-21T09:03:54.414Z,63.12
2023-05-21T09:05:59.225Z,64.03
2023-05-21T09:08:06.102Z,63.82
2023-05-21T09:10:12.090Z,63.26
2023-05-21T09:12:13.711Z,62.33
2023-05-21T09:14:16.738Z,61.07
2023-05-21T09:16:19.688Z,60.11
2023-05-21T09:18:21.192Z,60.73
2023-05-21T09:20:25.101Z,59.52
2023-05-21T09:22:27.578Z,59.00
2023-05-21T09:24:32.505Z,58.86
2023-05-21T09:26:35.231Z,58.75
2023-05-21T09:28:36.787Z,58.09
2023-05-21T09:30:44.380Z,58.62
2023-05-21T09:32:54.586Z,57.76
2023-05-21T09:34:56.159Z,57.11
2023-05-21T09:36:57.732Z,57.24
2023-05-21T09:38:59.489Z,57.62
2023-05-21T09:41:04.818Z,58.78
2023-05-21T09:43:06.337Z,57.93
2023-05-21T09:45:09.406Z,57.32
2023-05-21T09:47:10.948Z,56.75
2023-05-21T09:49:24.165Z,57.19
2023-05-21T09:51:25.715Z,56.99
2023-05-21T09:53:29.035Z,57.11
2023-05-21T09:55:30.551Z,58.79
2023-05-21T09:57:32.161Z,58.37
2023-05-21T09:59:37.218Z,59.40
2023-05-21T10:01:38.856Z,60.11
2023-05-21T10:03:42.598Z,59.22
2023-05-21T10:05:45.541Z,59.17
2023-05-21T10:07:50.239Z,58.67
2023-05-21T10:09:54.344Z,59.16
2023-05-21T10:11:57.319Z,60.12
2023-05-21T10:14:04.597Z,60.90
2023-05-21T10:16:06.549Z,60.00
2023-05-21T10:18:10.124Z,60.14
2023-05-21T10:20:12.428Z,60.90
2023-05-21T10:22:15.591Z,61.19
2023-05-21T10:24:17.742Z,60.83
2023-05-21T10:26:19.751Z,59.89
2023-05-21T10:28:23.865Z,58.53
2023-05-21T10:30:25.559Z,59.24
2023-05-21T10:32:28.201Z,59.44
2023-05-21T10:34:31.202Z,58.31
2023-05-21T10:36:34.189Z,56.97
2023-05-21T10:38:38.376Z,56.35
2023-05-21T10:40:40.149Z,54.09
2023-05-21T10:43:21.768Z,53.14
2023-05-21T10:45:33.343Z,55.41
2023-05-21T10:47:47.928Z,56.97
2023-05-21T10:50:05.455Z,56.39
2023-05-21T10:52:19.202Z,55.95
2023-05-21T10:54:53.281Z,56.42
2023-05-21T10:57:04.627Z,55.61
2023-05-21T10:59:20.365Z,53.77
2023-05-21T11:01:22.561Z,53.81
2023-05-21T11:03:25.239Z,54.22
2023-05-21T11:05:39.319Z,55.50
2023-05-21T11:07:52.060Z,55.53
2023-05-21T11:09:53.602Z,55.63
2023-05-21T11:11:58.978Z,57.02
2023-05-21T11:14:00.534Z,56.76
2023-05-21T11:16:14.212Z,56.32
2023-05-21T11:18:15.754Z,57.80
2023-05-21T11:20:17.277Z,55.72
2023-05-21T11:22:23.697Z,58.00
2023-05-21T11:24:25.444Z,58.33
2023-05-21T11:26:28.505Z,58.83
2023-05-21T11:28:34.332Z,58.32
2023-05-21T11:30:36.389Z,56.99
2023-05-21T11:32:39.028Z,57.00
2023-05-21T11:34:42.549Z,56.32
2023-05-21T11:36:45.548Z,57.30
2023-05-21T11:39:08.635Z,56.66
2023-05-21T11:41:10.202Z,55.84
2023-05-21T11:43:11.741Z,53.96
2023-05-21T11:45:17.601Z,54.24
2023-05-21T11:47:19.838Z,54.26
2023-05-21T11:49:22.330Z,55.45
2023-05-21T11:51:24.721Z,56.04
2023-05-21T11:53:29.330Z,56.45
2023-05-21T11:55:30.906Z,55.52
2023-05-21T11:57:32.636Z,55.74
2023-05-21T11:59:34.301Z,54.49
2023-05-21T12:01:37.149Z,54.00
2023-05-21T12:03:38.917Z,53.51
2023-05-21T12:05:44.788Z,52.91
2023-05-21T12:07:47.501Z,53.11
2023-05-21T12:09:50.243Z,52.87
2023-05-21T12:11:53.093Z,53.43
2023-05-21T12:13:54.701Z,53.12
2023-05-21T12:15:56.371Z,53.05
2023-05-21T12:17:59.388Z,52.30
2023-05-21T12:20:01.203Z,50.70
2023-05-21T12:22:02.934Z,51.55
2023-05-21T12:24:04.736Z,51.14
2023-05-21T12:26:06.402Z,51.00
2023-05-21T12:28:07.938Z,51.36
2023-05-21T12:30:09.851Z,51.24
2023-05-21T12:32:13.763Z,50.00
2023-05-21T12:34:36.692Z,50.27
2023-05-21T12:36:38.313Z,49.67
2023-05-21T12:38:39.853Z,50.90
2023-05-21T12:40:41.620Z,50.34
2023-05-21T12:42:44.068Z,50.41
2023-05-21T12:44:47.155Z,49.45
2023-05-21T12:46:48.755Z,49.80
2023-05-21T12:48:52.762Z,50.19
2023-05-21T12:50:58.478Z,49.83
2023-05-21T12:53:00.253Z,49.67
2023-05-21T12:55:01.801Z,49.74
2023-05-21T12:57:07.805Z,49.62
2023-05-21T12:59:13.165Z,50.12
2023-05-21T13:01:14.765Z,50.43
2023-05-21T13:03:16.405Z,50.81
2023-05-21T13:05:18.624Z,50.26
2023-05-21T13:07:21.624Z,50.25
2023-05-21T13:09:23.191Z,49.07
2023-05-21T13:11:24.736Z,50.07
2023-05-21T13:13:26.245Z,50.03
2023-05-21T13:15:27.786Z,50.28
2023-05-21T13:17:29.839Z,50.33
2023-05-21T13:19:31.413Z,50.29
2023-05-21T13:21:33.000Z,49.93
2023-05-21T13:23:35.891Z,49.99
2023-05-21T13:25:37.421Z,50.20
2023-05-21T13:27:39.109Z,50.10
2023-05-21T13:29:40.635Z,51.35
2023-05-21T13:31:42.570Z,50.10
2023-05-21T13:33:44.135Z,50.08
2023-05-21T13:35:45.726Z,50.65
2023-05-21T13:37:47.296Z,50.39
2023-05-21T13:39:50.191Z,50.59
2023-05-21T13:41:51.768Z,51.20
2023-05-21T13:43:53.320Z,51.05
2023-05-21T13:45:55.066Z,51.25
2023-05-21T13:47:56.719Z,50.85
2023-05-21T13:49:58.403Z,50.08
2023-05-21T13:52:00.152Z,49.73
2023-05-21T13:54:01.758Z,49.79
2023-05-21T13:56:05.318Z,49.25
2023-05-21T13:58:06.856Z,49.41
2023-05-21T14:00:09.437Z,49.66
2023-05-21T14:02:11.405Z,48.65
2023-05-21T14:04:12.974Z,49.40
2023-05-21T14:06:14.545Z,49.49
2023-05-21T14:08:16.125Z,48.01
2023-05-21T14:10:17.672Z,48.36
2023-05-21T14:12:20.560Z,48.64
2023-05-21T14:14:22.360Z,48.67
2023-05-21T14:16:24.127Z,46.68
2023-05-21T14:18:25.697Z,46.24
2023-05-21T14:20:27.243Z,47.55
2023-05-21T14:22:28.777Z,47.88
2023-05-21T14:24:30.323Z,48.70
2023-05-21T14:26:31.895Z,48.57
2023-05-21T14:28:34.819Z,48.30
2023-05-21T14:30:36.383Z,49.11
2023-05-21T14:32:37.974Z,49.33
2023-05-21T14:34:39.587Z,48.21
2023-05-21T14:36:41.129Z,47.86
2023-05-21T14:38:42.863Z,47.27
2023-05-21T14:40:44.652Z,47.70
2023-05-21T14:42:46.273Z,47.37
2023-05-21T14:44:49.287Z,47.62
2023-05-21T14:46:50.870Z,47.50
2023-05-21T14:48:52.397Z,47.65
2023-05-21T14:50:54.080Z,47.05
2023-05-21T14:52:55.598Z,46.95
2023-05-21T14:54:57.100Z,46.52
2023-05-21T14:56:58.641Z,46.70
2023-05-21T14:59:00.170Z,46.79
2023-05-21T15:01:03.440Z,46.33
2023-05-21T15:03:05.185Z,45.42
2023-05-21T15:05:06.826Z,44.61
2023-05-21T15:07:08.356Z,44.65
2023-05-21T15:09:09.893Z,44.49
2023-05-21T15:11:11.501Z,44.24
2023-05-21T15:13:13.165Z,43.35
2023-05-21T15:15:14.684Z,42.92
2023-05-21T15:17:17.549Z,41.85
2023-05-21T15:19:19.161Z,41.23
2023-05-21T15:21:20.751Z,40.66
2023-05-21T15:23:22.292Z,39.50
2023-05-21T15:25:23.893Z,39.85
2023-05-21T15:27:25.677Z,39.67
2023-05-21T15:29:27.222Z,39.27
2023-05-21T15:31:28.728Z,38.30
2023-05-21T15:33:31.745Z,38.31
2023-05-21T15:35:36.472Z,38.74
2023-05-21T15:37:38.426Z,37.92
2023-05-21T15:39:39.927Z,38.73
2023-05-21T15:41:42.012Z,37.84
2023-05-21T15:43:43.608Z,37.34
2023-05-21T15:45:45.180Z,36.71
2023-05-21T15:47:46.769Z,35.15
2023-05-21T15:49:49.690Z,36.17
2023-05-21T15:51:51.296Z,36.60
2023-05-21T15:53:52.834Z,35.76
2023-05-21T15:55:54.404Z,34.99
2023-05-21T15:57:55.909Z,35.18
2023-05-21T15:59:57.441Z,35.41
2023-05-21T16:01:59.058Z,34.71
2023-05-21T16:04:01.316Z,34.41
2023-05-21T16:06:04.344Z,35.65
2023-05-21T16:08:05.870Z,35.76
2023-05-21T16:10:09.644Z,34.76
2023-05-21T16:12:11.173Z,34.63
2023-05-21T16:14:12.732Z,34.62
2023-05-21T16:16:14.378Z,34.06
2023-05-21T16:18:15.906Z,34.39
2023-05-21T16:20:17.586Z,33.44
2023-05-21T16:22:20.472Z,32.68
2023-05-21T16:24:22.003Z,32.33
2023-05-21T16:26:23.588Z,32.03
2023-05-21T16:28:25.280Z,32.07
2023-05-21T16:30:26.832Z,30.43
2023-05-21T16:32:28.568Z,30.26
2023-05-21T16:34:30.456Z,29.41
2023-05-21T16:36:32.068Z,29.23
2023-05-21T16:38:34.939Z,29.64
2023-05-21T16:40:36.540Z,28.83
2023-05-21T16:42:38.139Z,29.65
2023-05-21T16:44:39.698Z,29.05
2023-05-21T16:46:41.338Z,28.71
2023-05-21T16:48:42.909Z,28.28
2023-05-21T16:50:44.492Z,27.90
2023-05-21T16:52:46.056Z,28.00
2023-05-21T16:54:48.971Z,27.97
2023-05-21T16:56:50.508Z,28.13
2023-05-21T16:58:52.062Z,28.05
2023-05-21T17:00:53.587Z,27.54
2023-05-21T17:02:55.358Z,27.21
2023-05-21T17:04:57.072Z,28.52
2023-05-21T17:06:58.608Z,31.13
2023-05-21T17:09:00.147Z,34.63
2023-05-21T17:11:03.088Z,36.79
2023-05-21T17:13:17.720Z,36.94
2023-05-21T17:15:23.495Z,37.05
2023-05-21T17:17:25.100Z,37.18
2023-05-21T17:19:26.730Z,40.24
2023-05-21T17:21:28.295Z,41.94
2023-05-21T17:23:29.822Z,43.12
2023-05-21T17:25:34.202Z,44.73
2023-05-21T17:27:37.369Z,45.60
2023-05-21T17:29:39.095Z,46.90
2023-05-21T17:31:40.823Z,47.74
2023-05-21T17:33:42.415Z,49.29
2023-05-21T17:35:44.101Z,49.08
2023-05-21T17:37:45.693Z,48.42
2023-05-21T17:39:47.242Z,48.95
2023-05-21T17:41:48.806Z,49.95
2023-05-21T17:43:51.782Z,50.75
2023-05-21T17:45:53.312Z,51.65
2023-05-21T17:47:56.642Z,51.11
2023-05-21T17:49:59.578Z,51.46
2023-05-21T17:52:01.152Z,51.00
2023-05-21T17:54:02.836Z,51.94
2023-05-21T17:56:04.982Z,52.80
2023-05-21T17:58:06.722Z,52.85
2023-05-21T18:00:10.590Z,54.01
2023-05-21T18:02:12.485Z,54.65
2023-05-21T18:04:14.046Z,56.50
2023-05-21T18:06:15.613Z,57.17
2023-05-21T18:08:17.181Z,57.56
2023-05-21T18:10:18.748Z,58.67
2023-05-21T18:12:20.326Z,58.72
2023-05-21T18:14:21.847Z,59.75
2023-05-21T18:16:24.752Z,59.83
2023-05-21T18:18:26.418Z,60.88
2023-05-21T18:20:27.936Z,60.48
2023-05-21T18:22:29.474Z,60.68
2023-05-21T18:24:30.997Z,61.49
2023-05-21T18:26:32.600Z,62.00
2023-05-21T18:28:35.225Z,61.42
2023-05-21T18:30:37.099Z,62.02
2023-05-21T18:32:40.213Z,62.60
2023-05-21T18:34:41.792Z,63.44
2023-05-21T18:36:43.355Z,63.91
2023-05-21T18:38:44.999Z,62.80
2023-05-21T18:40:46.590Z,62.50
2023-05-21T18:42:48.482Z,61.70
2023-05-21T18:44:50.745Z,62.28
2023-05-21T18:46:53.798Z,63.21
2023-05-21T18:48:58.959Z,63.13
2023-05-21T18:51:00.531Z,62.36
2023-05-21T18:53:02.210Z,62.16
2023-05-21T18:55:04.346Z,62.70
2023-05-21T18:57:06.163Z,63.91
2023-05-21T18:59:07.745Z,64.39
2023-05-21T19:01:09.433Z,64.56
2023-05-21T19:03:11.119Z,64.43
2023-05-21T19:05:14.089Z,64.97
2023-05-21T19:07:15.736Z,65.40
2023-05-21T19:09:17.277Z,65.63
2023-05-21T19:11:19.082Z,65.66
2023-05-21T19:13:20.657Z,66.34
2023-05-21T19:15:22.216Z,66.36
2023-05-21T19:17:23.818Z,66.22
2023-05-21T19:19:25.449Z,66.58
2023-05-21T19:21:28.511Z,66.44
2023-05-21T19:23:33.797Z,66.14
2023-05-21T19:25:42.928Z,65.90
2023-05-21T19:27:44.666Z,66.02
2023-05-21T19:29:46.299Z,66.33
2023-05-21T19:31:47.868Z,66.21
2023-05-21T19:33:49.566Z,66.48
2023-05-21T19:35:51.254Z,66.35
2023-05-21T19:37:54.175Z,66.59
2023-05-21T19:39:56.196Z,66.81
2023-05-21T19:41:57.735Z,67.27
2023-05-21T19:43:59.267Z,67.40
2023-05-21T19:46:00.846Z,67.75
2023-05-21T19:48:02.661Z,67.67
2023-05-21T19:50:04.986Z,67.73
2023-05-21T19:52:06.687Z,68.04
2023-05-21T19:54:09.646Z,68.17
2023-05-21T19:56:11.170Z,68.48
2023-05-21T19:58:12.714Z,68.38
2023-05-21T20:00:15.231Z,68.71
2023-05-21T20:02:16.824Z,68.71
2023-05-21T20:04:18.460Z,69.12
2023-05-21T20:06:20.246Z,69.51
2023-05-21T20:08:21.820Z,69.72
2023-05-21T20:10:24.729Z,70.02
2023-05-21T20:12:26.460Z,70.20
2023-05-21T20:14:28.022Z,70.37
2023-05-21T20:16:29.574Z,70.61
2023-05-21T20:18:31.095Z,70.53
2023-05-21T20:20:35.699Z,70.98
2023-05-21T20:22:37.309Z,71.42
2023-05-21T20:24:38.844Z,71.98
2023-05-21T20:26:41.795Z,72.59
2023-05-21T20:28:43.498Z,73.04
2023-05-21T20:30:55.662Z,73.25
2023-05-21T20:32:57.235Z,73.33
2023-05-21T20:35:03.251Z,74.68
2023-05-21T20:37:05.834Z,74.57
2023-05-21T20:39:07.386Z,74.78
2023-05-21T20:41:08.942Z,75.31
2023-05-21T20:43:11.824Z,75.56
2023-05-21T20:45:13.361Z,75.95
2023-05-21T20:47:14.887Z,76.21
2023-05-21T20:49:16.422Z,76.60
2023-05-21T20:51:17.972Z,77.06
2023-05-21T20:53:19.461Z,77.23
2023-05-21T20:55:21.019Z,77.41
2023-05-21T20:57:22.565Z,77.94
2023-05-21T20:59:25.865Z,77.87
2023-05-21T21:01:28.277Z,78.48
2023-05-21T21:03:31.162Z,78.46
2023-05-21T21:05:32.722Z,79.19
2023-05-21T21:07:35.409Z,79.28
2023-05-21T21:09:36.968Z,79.40
2023-05-21T21:11:38.521Z,79.23
2023-05-21T21:13:40.126Z,79.22
2023-05-21T21:15:43.035Z,79.50
2023-05-21T21:17:44.692Z,79.41
2023-05-21T21:19:46.260Z,79.66
2023-05-21T21:21:47.849Z,80.28
2023-05-21T21:23:49.332Z,80.50
2023-05-21T21:25:50.900Z,80.56
2023-05-21T21:27:52.437Z,81.35
2023-05-21T21:29:54.020Z,81.43
2023-05-21T21:31:57.175Z,82.18
2023-05-21T21:33:58.754Z,82.63
2023-05-21T21:36:00.401Z,82.76
2023-05-21T21:38:02.896Z,83.29
2023-05-21T21:40:05.686Z,83.23
2023-05-21T21:42:07.478Z,83.59
2023-05-21T21:44:09.045Z,84.11
2023-05-21T21:46:10.625Z,83.97
2023-05-21T21:48:13.599Z,84.45
2023-05-21T21:50:15.219Z,83.45
2023-05-21T21:52:17.629Z,83.18
2023-05-21T21:54:19.193Z,83.36
2023-05-21T21:56:20.701Z,83.39
2023-05-21T21:58:22.514Z,83.39
2023-05-21T22:00:24.288Z,84.04
2023-05-21T22:02:25.870Z,84.39
2023-05-21T22:04:28.878Z,84.51
2023-05-21T22:06:30.438Z,84.88
2023-05-21T22:08:32.002Z,84.83
2023-05-21T22:10:33.658Z,85.16
2023-05-21T22:12:35.199Z,85.63
2023-05-21T22:14:36.860Z,85.49
2023-05-21T22:16:38.444Z,85.78
2023-05-21T22:18:41.003Z,86.07
2023-05-21T22:20:44.662Z,86.87
2023-05-21T22:22:46.215Z,86.20
2023-05-21T22:24:47.730Z,86.28
2023-05-21T22:26:49.301Z,86.79
2023-05-21T22:28:50.941Z,86.93
2023-05-21T22:30:52.486Z,87.52
2023-05-21T22:32:54.146Z,86.93
2023-05-21T22:34:55.718Z,87.44
2023-05-21T22:36:58.618Z,87.63
2023-05-21T22:39:00.159Z,87.98
2023-05-21T22:41:01.751Z,87.95
2023-05-21T22:43:03.401Z,88.48
2023-05-21T22:45:05.837Z,89.06
2023-05-21T22:47:07.392Z,88.68
2023-05-21T22:49:08.974Z,88.60
2023-05-21T22:51:10.520Z,89.03
2023-05-21T22:53:13.663Z,89.34
2023-05-21T22:55:16.204Z,90.38
2023-05-21T22:57:18.132Z,89.85
2023-05-21T22:59:19.652Z,90.09
2023-05-21T23:01:21.284Z,89.92
2023-05-21T23:03:22.897Z,89.78
2023-05-21T23:05:24.513Z,89.84
2023-05-21T23:07:26.118Z,90.02
2023-05-21T23:09:29.014Z,89.90
2023-05-21T23:11:30.647Z,89.83
2023-05-21T23:13:32.213Z,89.98
2023-05-21T23:15:33.808Z,89.42
2023-05-21T23:17:35.432Z,90.14
2023-05-21T23:19:37.023Z,90.79
2023-05-21T23:21:38.594Z,90.85
2023-05-21T23:23:40.112Z,91.41
2023-05-21T23:25:43.083Z,91.68
2023-05-21T23:27:44.646Z,91.79
2023-05-21T23:29:46.164Z,92.31
2023-05-21T23:31:47.871Z,92.62
2023-05-21T23:33:49.867Z,92.83
2023-05-21T23:35:51.399Z,92.33
2023-05-21T23:37:52.923Z,92.33
2023-05-21T23:39:54.435Z,92.21
2023-05-21T23:41:57.363Z,92.05
2023-05-21T23:43:58.864Z,92.22
2023-05-21T23:46:00.463Z,92.59
2023-05-21T23:48:02.049Z,92.92
2023-05-21T23:50:04.102Z,93.25
2023-05-21T23:52:06.846Z,93.38
2023-05-21T23:54:08.398Z,93.52
2023-05-21T23:56:09.930Z,93.21
2023-05-21T23:58:12.801Z,92.78
